Time;durP1;ratioP1;P1;durP2;ratioP2;P2;SDS_P1;SDS_P2;PMS_P1;PMS_P2;Temp;Humidity;BMP_temperature;BMP_pressure;BME280_temperature;BME280_humidity;BME280_pressure;Samples;Min_cycle;Max_cycle;Signal;HPM_P1;HPM_P2
2023/07/11 22:12:06;;;;;;;1.02;0.60;;;;;;;20.40;100.00;96275.34;5072145;28;1216024;-67
2023/07/11 22:14:33;;;;;;;0.60;0.50;;;;;;;20.61;100.00;96272.84;5109092;28;20678;-67
2023/07/11 22:16:59;;;;;;;0.85;0.60;;;;;;;20.36;100.00;96244.75;5108954;28;20300;-67
2023/07/11 22:19:26;;;;;;;1.60;0.57;;;;;;;20.81;100.00;96238.44;5096469;28;20232;-68
2023/07/11 22:21:52;;;;;;;0.65;0.40;;;;;;;20.36;100.00;96223.34;5088243;28;20224;-67
2023/07/11 22:24:18;;;;;;;1.65;0.80;;;;;;;20.59;100.00;96228.63;5088155;28;20661;-67
2023/07/11 22:26:45;;;;;;;1.15;0.60;;;;;;;20.59;100.00;96212.56;5088420;28;20695;-67
2023/07/11 22:29:13;;;;;;;0.70;0.60;;;;;;;20.34;100.00;96209.38;5088252;28;20231;-67
2023/07/11 22:31:39;;;;;;;2.08;0.98;;;;;;;20.14;100.00;96198.28;5088668;28;20208;-67
2023/07/11 22:34:05;;;;;;;0.82;0.65;;;;;;;20.20;100.00;96208.03;5088253;28;20216;-67
2023/07/11 22:36:32;;;;;;;0.70;0.57;;;;;;;20.39;100.00;96214.84;5088150;28;20601;-67
2023/07/11 22:38:58;;;;;;;1.40;0.65;;;;;;;20.66;100.00;96237.31;5088079;28;20228;-67
2023/07/11 22:41:25;;;;;;;3.53;1.00;;;;;;;20.66;100.00;96250.72;5088104;28;20676;-67
2023/07/11 22:43:51;;;;;;;1.00;0.70;;;;;;;20.87;100.00;96259.75;5088433;28;20208;-67
2023/07/11 22:46:21;;;;;;;2.15;0.70;;;;;;;21.38;100.00;96264.13;5088181;28;20211;-67
2023/07/11 22:48:48;;;;;;;2.13;0.60;;;;;;;21.55;100.00;96274.66;5087903;28;20228;-67
2023/07/11 22:51:16;;;;;;;4.97;1.02;;;;;;;21.54;100.00;96266.84;5087999;28;20204;-67
2023/07/11 22:53:43;;;;;;;3.60;0.63;;;;;;;21.51;100.00;96278.06;5088601;28;20200;-67
2023/07/11 22:56:15;;;;;;;1.65;0.70;;;;;;;21.84;100.00;96281.56;5087997;28;20235;-67
2023/07/11 22:58:42;;;;;;;0.93;0.63;;;;;;;21.81;100.00;96282.03;5087915;28;20614;-67
2023/07/11 23:01:13;;;;;;;2.47;0.65;;;;;;;21.94;100.00;96288.94;5087712;28;20575;-67
2023/07/11 23:03:40;;;;;;;2.22;1.10;;;;;;;21.94;100.00;96284.38;5088144;28;20212;-67
2023/07/11 23:06:17;;;;;;;6.10;0.93;;;;;;;21.66;100.00;96286.34;5087867;28;20207;-67
2023/07/11 23:08:43;;;;;;;1.80;0.93;;;;;;;21.66;100.00;96281.78;5092702;28;20301;-67
2023/07/11 23:11:10;;;;;;;2.00;0.90;;;;;;;21.72;100.00;96253.19;5094465;28;20254;-67
2023/07/11 23:13:37;;;;;;;0.95;0.60;;;;;;;21.35;100.00;96253.91;5094535;28;20223;-67
2023/07/11 23:16:12;;;;;;;7.03;1.15;;;;;;;21.65;100.00;96295.44;5094462;28;20212;-67
2023/07/11 23:18:41;;;;;;;2.28;0.77;;;;;;;21.29;100.00;96317.31;5093784;28;20238;-67
2023/07/11 23:21:10;;;;;;;1.73;0.77;;;;;;;21.98;100.00;96290.06;5094606;28;20204;-67
2023/07/11 23:23:36;;;;;;;1.10;0.98;;;;;;;21.83;100.00;96250.41;5094336;28;20672;-67
2023/07/11 23:26:11;;;;;;;1.55;0.90;;;;;;;22.11;100.00;96210.84;5094266;28;20682;-67
2023/07/11 23:28:38;;;;;;;8.45;1.92;;;;;;;21.59;100.00;96221.34;5093825;28;20603;-67
2023/07/11 23:31:05;;;;;;;4.78;2.13;;;;;;;21.66;100.00;96225.47;5094298;28;20653;-67
2023/07/11 23:33:32;;;;;;;6.25;1.95;;;;;;;21.84;100.00;96208.28;5094268;28;20204;-67
2023/07/11 23:36:00;;;;;;;3.83;1.60;;;;;;;21.59;100.00;96232.06;5093885;28;20710;-67
2023/07/11 23:38:28;;;;;;;4.30;1.48;;;;;;;21.92;100.00;96216.75;5093334;28;20250;-67
2023/07/11 23:40:56;;;;;;;4.50;1.50;;;;;;;21.84;100.00;96186.81;5094152;28;20211;-67
2023/07/11 23:43:35;;;;;;;11.88;1.10;;;;;;;21.88;100.00;96167.31;5093736;28;20211;-67
2023/07/11 23:46:03;;;;;;;4.57;1.80;;;;;;;21.94;100.00;96152.09;5094285;28;20211;-67
2023/07/11 23:48:32;;;;;;;2.50;1.30;;;;;;;22.14;100.00;96162.00;5093739;28;20597;-67
2023/07/11 23:51:00;;;;;;;3.67;1.50;;;;;;;21.96;100.00;96152.63;5093971;28;20291;-67
2023/07/11 23:53:30;;;;;;;4.28;2.42;;;;;;;21.93;100.00;96129.00;5093950;28;20207;-67
2023/07/11 23:55:59;;;;;;;2.15;0.80;;;;;;;21.83;100.00;96161.06;5093660;28;20199;-67
2023/07/11 23:58:27;;;;;;;2.20;0.88;;;;;;;21.78;100.00;96199.38;5069411;28;20706;-67
